Terminal Aerodrome Forecast
Issued by NWS Pocatello, ID

Home | Current Version | Previous Version | Text Only | Print | Product List | Glossary On
Versions: 1 2 3 4 5 6 7 8 9 10 11 12 13 14 15 16
000
FTUS45 KPIH 201741
TAFBYI
TAF
KBYI 201741Z 2018/2118 09010KT P6SM VCTS SCT060CB BKN100 BKN160
     FM202200 09006KT P6SM VCTS BKN070CB BKN140
     FM210000 VRB06KT P6SM VCTS BKN090CB
      TEMPO 2100/2102 VRB15G30KT 4SM -TSRA BKN060CB OVC090
     FM210200 VRB10KT 4SM -SHRA VCTS SCT050CB BKN080 BKN120
     FM210400 27015KT P6SM VCSH SCT015 BKN110 BKN140=

USA.gov is the U.S. government's official web portal to all federal, state and local government web resources and services.